TimeMDT,TemperatureF,Dew PointF,Humidity,Sea Level PressureIn,VisibilityMPH,Wind Direction,Wind SpeedMPH,Gust SpeedMPH,PrecipitationIn,Events,Conditions,WindDirDegrees,DateUTC
12:55 AM,54.7,1.6,12,29.71,10.0,SW,11.5,-,N/A,,Clear,230,2012-10-09 06:55:00
1:55 AM,46.6,8.6,21,29.73,10.0,NNW,8.1,-,N/A,,Clear,340,2012-10-09 07:55:00
2:55 AM,47.5,9.7,22,29.72,10.0,NNW,12.7,-,N/A,,Clear,330,2012-10-09 08:55:00
3:55 AM,45.0,12.4,27,29.72,10.0,North,8.1,-,N/A,,Clear,360,2012-10-09 09:55:00
4:55 AM,44.8,13.3,28,29.74,10.0,North,3.5,-,N/A,,Clear,10,2012-10-09 10:55:00
5:55 AM,41.7,15.6,35,29.76,10.0,NE,4.6,-,N/A,,Clear,50,2012-10-09 11:55:00
6:55 AM,39.2,16.2,39,29.83,10.0,NE,9.2,-,N/A,,Clear,40,2012-10-09 12:55:00
7:55 AM,41.0,21.0,45,29.88,10.0,North,11.5,-,N/A,,Clear,350,2012-10-09 13:55:00
8:55 AM,47.1,21.9,37,29.89,10.0,North,8.1,-,N/A,,Clear,350,2012-10-09 14:55:00
9:55 AM,55.2,23.7,30,29.84,10.0,North,11.5,-,N/A,,Clear,350,2012-10-09 15:55:00
10:55 AM,58.5,25.5,28,29.79,10.0,NNW,13.8,17.3,N/A,,Clear,340,2012-10-09 16:55:00
11:55 AM,58.5,25.0,28,29.78,10.0,NNW,12.7,21.9,N/A,,Clear,340,2012-10-09 17:55:00
12:55 PM,60.1,26.4,28,29.78,10.0,NNW,15.0,-,N/A,,Clear,330,2012-10-09 18:55:00
1:55 PM,61.2,28.8,29,29.79,10.0,NE,6.9,-,N/A,,Clear,40,2012-10-09 19:55:00
2:55 PM,61.5,27.9,28,29.80,10.0,South,15.0,-,N/A,,Clear,170,2012-10-09 20:55:00
2:56 PM,60.8,28.4,29,29.80,10.0,SSE,15.0,-,N/A,,Clear,160,2012-10-09 20:56:00
3:55 PM,58.1,29.5,34,29.85,10.0,SE,12.7,20.7,N/A,,Clear,140,2012-10-09 21:55:00
4:55 PM,53.8,33.3,46,29.88,10.0,SE,13.8,28.8,N/A,,Clear,130,2012-10-09 22:55:00
5:00 PM,53.6,33.8,47,29.88,10.0,ESE,12.7,28.8,N/A,,Clear,120,2012-10-09 23:00:00
5:55 PM,47.1,33.3,59,30.00,10.0,SE,9.2,-,N/A,,Clear,130,2012-10-09 23:55:00
6:55 PM,42.4,32.7,68,30.09,10.0,SSE,6.9,-,N/A,,Clear,160,2012-10-10 00:55:00
7:11 PM,41.0,33.8,76,30.13,10.0,South,4.6,-,N/A,,Mostly Cloudy,170,2012-10-10 01:11:00
7:17 PM,42.8,33.8,70,30.13,10.0,SSE,6.9,-,N/A,,Mostly Cloudy,160,2012-10-10 01:17:00
7:55 PM,41.9,32.7,70,30.12,10.0,SSE,9.2,-,N/A,,Overcast,160,2012-10-10 01:55:00
8:39 PM,41.0,33.8,76,30.11,10.0,South,11.5,-,N/A,,Overcast,180,2012-10-10 02:39:00
8:55 PM,41.0,32.7,72,30.09,10.0,South,11.5,-,N/A,,Overcast,170,2012-10-10 02:55:00
9:55 PM,39.4,32.5,76,30.05,10.0,SSE,11.5,-,N/A,,Overcast,160,2012-10-10 03:55:00
10:36 PM,39.2,32.0,75,30.05,10.0,SSE,13.8,-,N/A,,Overcast,160,2012-10-10 04:36:00
10:55 PM,38.1,32.4,80,30.05,10.0,SSE,15.0,-,N/A,,Overcast,160,2012-10-10 04:55:00
11:55 PM,37.8,32.5,81,30.05,10.0,SSE,12.7,-,N/A,,Overcast,160,2012-10-10 05:55:00